Lund, Canada
Current Conditions -  °F | °C
As of 7:00 PM on Friday 24 Oct 2014 (Local Time) from CYPW Reporting Station
Overcast Overcast  
Wind Chill: 46°   Ceiling: 27000
Heat Index: 46°   Visibility: 20mi
Dew Point: 46°   Wind: 0mph
Humidity: 100%   Direction: NA
Pressure: 29.95"   Gusts: NA
Location:  49.98°N, 124.76°W
Report Text: CYPW 250200Z 00000KT 20SM FEW012 FEW035 FEW140 OVC270 08/08 A2995 RMK SF1SC1AC1CS8 SF TR SC TR AC TR LAST OBS/NEXT251300UTC SLP145
Loading
Personal Weather Stations






























Interactive Weather Map
Tropical Storm Tracking
New forecast layout! Learn more

10-Day Weather Forecast

Advertisements
Track Severe Weather on mobile